Airfield :
LOGIN :

Register | Disclaimer

   EN    FR    IT 

 










Legend :    VFR   Marginal VFR   IFR   Intensive IFR   Very Intensive IFR
Visi :
Ceiling :
>= 8 km
>= 3000ft
5 to 8 km
1000 to 3000 ft
1500m to 5 km
500 to 1000 ft
800 to 1500m
200 to 500 ft
< 800m
< 200 ft
Symbols :   Thunderstorms  Fog  Heavy snow  Heavy precipitations  Wind > 20 kt
SIGMETs :     Misc.  Thunderstorms  Icing  Turbulence  Mountain Waves  Volcanic Ashes







- Airport Elevation : 659 ft
- IATA code : LGG


EBLG - Liège

CURRENT METAR :
  • 150020Z 25011KT 9999 BKN008 BKN009 02/01 Q0991 TEMPO BKN005

EXPIRED METARs :
  • 142350Z 25012KT 9999 BKN007 BKN008 02/01 Q0991 TEMPO 3000 SHRASN BKN005
  • 142320Z 24010KT 9999 BKN008 BKN010 02/01 Q0990 TEMPO 3000 SHRASN BKN005
  • 142250Z 23009KT 6000 FEW007 SCT013 BKN018 02/01 Q0990 TEMPO 3000 SHRASN BKN005
  • 142220Z 24008KT 9999 FEW007 02/00 Q0990 TEMPO 3000 SHRASN BKN005
  • 142150Z 22013KT 9999 FEW007 02/00 Q0990 TEMPO 3000 SHRASN BKN005

TAF TAF EBLG
Valid from the 15 at 00:00 until the 16 at 06:00 UTC


142310Z 1500/1606 24009KT 9999 SCT007 SCT035
TEMPO 1500/1503 BKN007
PROB40
TEMPO 1505/1507 2500 SHSNRA BKN006 SCT011CB
PROB40
TEMPO 1514/1518 2500 SHSNRA BKN006 SCT011CB
PROB30
TEMPO 1523/1606 2500 BR BKN003
No reported NOTAMs for that airfield.



MET'MAP, your aeronautical weather chart ! - Copyright ORBIFLY December 2007 - Disclaimer

ORBIFLY MET'MAP TEAM :

Programming & Development : Alexandra Zaïnal
Concept & Development : Baudouin d'Aumeries
Co-Development & Prog : Marc-Olivier Méhu
Technical & hardware support : Manuel Goepfert

Contact : metmap@orbifly.com




SOURCES & CREDITS :

   NOAA